Time;durP1;ratioP1;P1;durP2;ratioP2;P2;SDS_P1;SDS_P2;PMS_P1;PMS_P2;Temp;Humidity;BMP_temperature;BMP_pressure;BME280_temperature;BME280_humidity;BME280_pressure;Samples;Min_cycle;Max_cycle;Signal;HPM_P1;HPM_P2
2022/06/11 00:00:48;;;;;;;16.05;10.02;;;13.10;99.90;;;;;;10443566;28;20087;-85
2022/06/11 00:05:49;;;;;;;15.07;9.30;;;13.10;99.90;;;;;;10445494;28;20068;-89
2022/06/11 00:10:50;;;;;;;17.70;11.75;;;13.00;99.90;;;;;;10450497;28;20484;-85
2022/06/11 00:15:53;;;;;;;16.80;12.75;;;13.00;99.90;;;;;;10451507;28;20075;-84
2022/06/11 00:20:54;;;;;;;18.08;12.50;;;12.90;99.90;;;;;;10426981;28;20028;-85
2022/06/11 00:25:55;;;;;;;21.08;13.45;;;12.90;99.90;;;;;;10432474;28;20481;-85
2022/06/11 00:30:56;;;;;;;16.13;11.45;;;12.80;99.90;;;;;;10443979;28;20036;-85
2022/06/11 00:35:57;;;;;;;22.27;13.45;;;12.80;99.90;;;;;;10421256;28;20049;-86
2022/06/11 00:40:58;;;;;;;15.63;11.90;;;12.90;99.90;;;;;;10436967;28;20029;-85
2022/06/11 00:46:36;;;;;;;22.27;14.48;;;12.90;99.90;;;;;;10463170;28;20033;-86
2022/06/11 00:51:38;;;;;;;17.60;12.98;;;12.80;99.90;;;;;;10452743;28;20086;-85
2022/06/11 00:56:44;;;;;;;18.55;13.00;;;12.70;99.90;;;;;;10448896;28;20065;-86
2022/06/11 01:01:47;;;;;;;;;;;12.70;99.90;;;;;;10439605;28;20064;-85
2022/06/11 01:06:53;;;;;;;19.98;14.27;;;12.60;99.90;;;;;;10464942;28;19912;-85
2022/06/11 01:12:06;;;;;;;23.60;15.95;;;12.60;99.90;;;;;;10451034;28;20032;-87
2022/06/11 01:17:06;;;;;;;29.85;18.17;;;12.60;99.90;;;;;;10452384;28;20067;-85
2022/06/11 01:22:16;;;;;;;21.80;16.38;;;12.60;99.90;;;;;;10449937;28;20134;-85
2022/06/11 01:27:30;;;;;;;23.30;16.08;;;12.60;99.90;;;;;;10460558;28;20029;-85
2022/06/11 01:32:40;;;;;;;32.58;18.30;;;12.50;99.90;;;;;;10452869;28;20499;-85
2022/06/11 01:37:51;;;;;;;20.60;15.23;;;12.50;99.90;;;;;;10451081;28;20041;-85
2022/06/11 01:43:00;;;;;;;22.67;15.52;;;12.40;99.90;;;;;;10448204;28;20024;-91
2022/06/11 01:48:03;;;;;;;28.15;18.20;;;12.40;99.90;;;;;;10453815;28;20116;-85
2022/06/11 01:53:39;;;;;;;33.35;20.70;;;12.40;99.90;;;;;;10455965;28;20029;-85
2022/06/11 01:58:52;;;;;;;32.42;19.92;;;12.50;99.90;;;;;;10427859;28;20369;-85
2022/06/11 02:04:02;;;;;;;21.75;16.88;;;12.50;99.90;;;;;;10452405;28;20831;-87
2022/06/11 02:09:08;;;;;;;23.77;17.35;;;12.50;99.90;;;;;;10453082;28;20587;-87
2022/06/11 02:14:18;;;;;;;24.75;16.98;;;12.60;99.90;;;;;;10451406;28;20043;-85
2022/06/11 02:19:36;;;;;;;28.17;18.17;;;12.60;99.90;;;;;;10448024;28;20528;-86
2022/06/11 02:25:06;;;;;;;22.73;18.10;;;12.60;99.90;;;;;;10435687;28;20052;-85
2022/06/11 02:30:10;;;;;;;25.55;16.95;;;12.60;99.90;;;;;;10428569;28;20045;-85
2022/06/11 02:35:14;;;;;;;24.17;16.02;;;12.60;99.90;;;;;;10446604;28;20041;-88
2022/06/11 02:40:22;;;;;;;19.33;14.43;;;12.50;99.90;;;;;;10447282;28;20024;-86
2022/06/11 02:45:23;;;;;;;28.33;18.27;;;12.50;99.90;;;;;;10446769;28;20052;-85
2022/06/11 02:50:30;;;;;;;29.02;18.58;;;12.40;99.90;;;;;;10446921;28;20032;-85
2022/06/11 02:55:32;;;;;;;35.25;19.40;;;12.40;99.90;;;;;;10459027;28;20500;-83
2022/06/11 03:00:39;;;;;;;21.08;15.43;;;12.40;99.90;;;;;;10448878;28;20416;-86
2022/06/11 03:05:41;;;;;;;20.63;16.05;;;12.40;99.90;;;;;;10455961;28;20029;-87
2022/06/11 03:10:41;;;;;;;23.67;16.70;;;12.40;99.90;;;;;;10446155;28;20033;-85
2022/06/11 03:15:42;;;;;;;25.17;18.15;;;12.50;99.90;;;;;;10449153;28;20439;-85
2022/06/11 03:20:43;;;;;;;32.80;18.38;;;12.50;99.90;;;;;;10459053;28;20025;-85
2022/06/11 03:25:45;;;;;;;24.92;17.13;;;12.50;99.90;;;;;;10445590;28;20083;-87
2022/06/11 03:30:47;;;;;;;24.33;17.23;;;12.50;99.90;;;;;;10446313;28;20032;-84
2022/06/11 03:35:49;;;;;;;26.92;19.20;;;12.50;99.90;;;;;;10454376;28;20037;-86
2022/06/11 03:40:49;;;;;;;28.35;18.90;;;12.50;99.90;;;;;;10448615;28;20078;-89
2022/06/11 03:45:51;;;;;;;26.75;18.15;;;12.50;99.90;;;;;;10433116;28;20842;-85
2022/06/11 03:50:51;;;;;;;24.75;18.27;;;12.60;99.90;;;;;;10448877;28;20020;-85
2022/06/11 03:55:52;;;;;;;30.90;19.58;;;12.60;99.90;;;;;;10450640;28;20503;-88
2022/06/11 04:06:13;;;;;;;26.77;20.67;;;12.70;99.90;;;;;;10457344;28;20033;-85
2022/06/11 04:11:14;;;;;;;26.13;18.33;;;12.80;99.90;;;;;;10448736;28;20029;-85
2022/06/11 04:16:29;;;;;;;24.20;18.05;;;13.10;99.90;;;;;;10456086;28;20120;-85
2022/06/11 04:21:32;;;;;;;23.33;18.60;;;13.20;99.90;;;;;;10474480;28;20033;-84
2022/06/11 04:26:40;;;;;;;21.65;16.27;;;13.50;99.90;;;;;;10449483;28;20032;-84
2022/06/11 04:31:41;;;;;;;23.30;16.30;;;13.60;99.90;;;;;;10450748;28;20124;-84
2022/06/11 04:36:44;;;;;;;20.00;14.98;;;13.80;99.90;;;;;;10454522;28;20793;-87
2022/06/11 04:41:45;;;;;;;19.58;14.35;;;14.00;99.90;;;;;;10451434;28;20033;-90
2022/06/11 04:46:46;;;;;;;16.83;12.80;;;14.10;99.90;;;;;;10468745;28;20039;-86
2022/06/11 04:51:47;;;;;;;19.23;13.48;;;14.30;99.90;;;;;;10451672;28;20032;-84
2022/06/11 04:56:47;;;;;;;13.35;11.07;;;14.50;99.90;;;;;;10450030;28;20451;-86
2022/06/11 05:01:48;;;;;;;10.85;8.57;;;14.70;99.90;;;;;;10459303;28;20122;-84
2022/06/11 05:06:49;;;;;;;11.75;7.82;;;14.90;99.90;;;;;;10450900;28;20071;-87
2022/06/11 05:11:51;;;;;;;9.98;8.38;;;15.20;99.90;;;;;;10466109;28;20094;-86
2022/06/11 05:16:56;;;;;;;16.13;10.35;;;15.40;99.90;;;;;;10444250;28;20055;-86
2022/06/11 05:21:57;;;;;;;10.13;8.25;;;15.70;99.90;;;;;;10430426;28;20117;-86
2022/06/11 05:27:02;;;;;;;7.97;5.45;;;15.90;99.90;;;;;;10416996;28;20037;-84
2022/06/11 05:32:03;;;;;;;6.72;4.80;;;16.10;99.90;;;;;;10417249;28;20029;-84
2022/06/11 05:37:04;;;;;;;6.45;4.35;;;16.30;99.90;;;;;;10408166;28;20033;-89
2022/06/11 05:42:05;;;;;;;5.65;4.90;;;16.40;99.90;;;;;;10411524;28;20031;-86
2022/06/11 05:47:08;;;;;;;5.57;4.25;;;16.60;99.90;;;;;;10409420;28;20032;-88
2022/06/11 05:52:24;;;;;;;5.40;4.30;;;16.80;99.90;;;;;;10418571;28;20535;-86
2022/06/11 05:57:27;;;;;;;4.68;3.58;;;17.00;99.90;;;;;;10420097;28;20037;-91
2022/06/11 06:02:28;;;;;;;6.28;3.72;;;17.20;99.90;;;;;;10455253;28;20473;-89
2022/06/11 06:07:29;;;;;;;4.00;3.25;;;17.40;99.90;;;;;;10447884;28;20032;-86
2022/06/11 06:12:32;;;;;;;4.05;3.03;;;17.50;99.90;;;;;;10458489;28;20029;-83
2022/06/11 06:17:33;;;;;;;3.20;2.58;;;17.60;99.90;;;;;;10451078;28;20044;-88
2022/06/11 06:22:34;;;;;;;5.72;2.90;;;17.70;99.90;;;;;;10443527;28;20030;-88
2022/06/11 06:27:34;;;;;;;3.65;2.85;;;17.90;99.90;;;;;;10430827;28;20032;-84
2022/06/11 06:32:35;;;;;;;3.42;2.90;;;18.10;99.90;;;;;;10447263;28;20100;-88
2022/06/11 06:37:36;;;;;;;2.83;2.47;;;18.20;99.90;;;;;;10445413;28;20047;-87
2022/06/11 06:42:36;;;;;;;2.58;2.38;;;18.40;99.90;;;;;;10449426;28;20575;-87
2022/06/11 06:47:37;;;;;;;2.47;1.98;;;18.60;99.90;;;;;;10454181;28;20584;-86
2022/06/11 06:52:38;;;;;;;3.53;2.17;;;19.30;99.90;;;;;;10445262;28;20040;-87
2022/06/11 06:57:39;;;;;;;3.25;2.17;;;21.10;99.80;;;;;;10442112;28;20056;-86
2022/06/11 07:02:39;;;;;;;3.97;2.05;;;22.50;94.80;;;;;;10444586;28;20024;-87
2022/06/11 07:07:40;;;;;;;2.10;1.90;;;22.60;89.50;;;;;;10444457;28;20469;-84
2022/06/11 07:12:41;;;;;;;3.70;1.73;;;23.00;90.90;;;;;;10456802;28;20056;-87
2022/06/11 07:17:47;;;;;;;3.08;1.40;;;23.90;82.00;;;;;;10433483;28;20336;-88
2022/06/11 07:22:53;;;;;;;3.80;1.58;;;24.40;82.70;;;;;;10434283;28;20025;-87
2022/06/11 07:28:07;;;;;;;2.72;1.83;;;25.00;80.90;;;;;;10445052;28;20108;-89
2022/06/11 07:33:12;;;;;;;1.80;1.40;;;25.20;80.90;;;;;;10444636;28;20040;-88
2022/06/11 07:38:16;;;;;;;1.77;1.00;;;25.60;75.90;;;;;;10432717;28;20232;-88
2022/06/11 07:43:18;;;;;;;2.53;1.60;;;25.40;76.90;;;;;;10430768;28;20373;-90
2022/06/11 07:48:18;;;;;;;2.63;1.40;;;25.70;73.00;;;;;;10447073;28;20041;-83
2022/06/11 07:53:21;;;;;;;3.35;1.80;;;25.20;72.90;;;;;;10453197;28;20029;-84
2022/06/11 07:58:31;;;;;;;3.72;2.08;;;24.20;73.30;;;;;;10450522;28;20060;-82
2022/06/11 08:03:32;;;;;;;2.53;1.23;;;23.60;77.00;;;;;;10452876;28;20587;-85
2022/06/11 08:08:33;;;;;;;1.95;1.10;;;23.30;76.00;;;;;;10455882;28;20048;-82
2022/06/11 08:13:34;;;;;;;2.35;1.40;;;23.20;76.70;;;;;;10452587;28;20055;-82
2022/06/11 08:18:35;;;;;;;1.40;1.05;;;23.00;76.60;;;;;;10451055;28;20033;-84
2022/06/11 08:23:36;;;;;;;1.60;1.05;;;23.00;73.90;;;;;;10453537;28;20400;-83
2022/06/11 08:28:37;;;;;;;1.70;1.35;;;23.10;75.90;;;;;;10427853;28;20037;-84
2022/06/11 08:33:37;;;;;;;2.17;1.20;;;22.70;74.40;;;;;;10435963;28;20037;-85
2022/06/11 08:38:38;;;;;;;3.00;1.00;;;22.70;76.60;;;;;;10444946;28;20021;-84
2022/06/11 08:43:42;;;;;;;1.42;1.10;;;22.70;74.40;;;;;;10443782;28;20041;-84
2022/06/11 08:48:53;;;;;;;2.58;0.80;;;22.70;75.80;;;;;;10435039;28;20043;-83
2022/06/11 08:53:58;;;;;;;0.68;0.68;;;23.10;78.10;;;;;;10438259;28;20041;-83
2022/06/11 08:59:17;;;;;;;1.07;0.80;;;23.30;76.60;;;;;;10451300;28;20037;-91
2022/06/11 09:04:29;;;;;;;0.95;0.70;;;23.20;70.30;;;;;;10436088;28;20061;-84
2022/06/11 09:09:41;;;;;;;0.80;0.80;;;23.40;71.00;;;;;;10442248;28;20025;-85
2022/06/11 09:14:41;;;;;;;4.05;1.05;;;23.30;70.30;;;;;;10450338;28;20029;-84
2022/06/11 09:20:24;;;;;;;3.67;0.80;;;23.50;69.80;;;;;;10450936;28;20564;-87
2022/06/11 09:25:24;;;;;;;1.88;0.75;;;23.70;70.00;;;;;;10445637;28;20664;-84
2022/06/11 09:30:38;;;;;;;2.30;0.90;;;24.00;70.80;;;;;;10447093;28;20021;-90
2022/06/11 09:35:41;;;;;;;1.05;0.75;;;23.90;66.30;;;;;;10450067;28;20053;-84
2022/06/11 09:40:49;;;;;;;3.97;1.13;;;24.00;69.80;;;;;;10447720;28;20025;-85
2022/06/11 09:46:02;;;;;;;2.95;1.42;;;24.30;71.40;;;;;;10448393;28;20029;-84
2022/06/11 09:51:28;;;;;;;3.80;1.27;;;24.40;70.00;;;;;;10449068;28;20020;-85
2022/06/11 09:56:52;;;;;;;5.30;1.05;;;24.50;70.70;;;;;;10447314;28;20139;-84
2022/06/11 10:07:55;;;;;;;1.20;1.10;;;24.40;64.50;;;;;;10438545;28;20052;-85
2022/06/11 10:13:01;;;;;;;3.45;1.38;;;24.00;65.60;;;;;;10448856;28;20036;-84
2022/06/11 10:18:11;;;;;;;2.47;1.35;;;24.20;71.30;;;;;;10431366;28;20033;-84
2022/06/11 10:23:20;;;;;;;2.65;1.48;;;24.40;71.70;;;;;;10436300;28;20025;-85
2022/06/11 10:28:23;;;;;;;2.22;1.20;;;24.80;66.50;;;;;;10447567;28;20119;-82
2022/06/11 10:33:43;;;;;;;2.10;1.10;;;24.80;66.90;;;;;;10433375;28;20373;-87
2022/06/11 10:38:55;;;;;;;2.13;1.20;;;24.70;67.30;;;;;;10447266;28;20029;-83
2022/06/11 10:44:31;;;;;;;2.38;1.10;;;24.90;71.20;;;;;;10431338;28;20041;-87
2022/06/11 10:49:31;;;;;;;2.83;1.20;;;24.80;68.20;;;;;;10426337;28;20040;-84
2022/06/11 10:54:32;;;;;;;2.30;1.20;;;24.70;69.20;;;;;;10439257;28;20253;-83
2022/06/11 10:59:47;;;;;;;3.22;1.10;;;24.80;68.50;;;;;;10423376;28;20049;-84
2022/06/11 11:05:10;;;;;;;2.85;1.40;;;24.80;66.90;;;;;;10442380;28;20033;-85
2022/06/11 11:10:21;;;;;;;2.17;1.13;;;24.90;70.70;;;;;;10451534;28;20116;-85
2022/06/11 11:15:26;;;;;;;3.17;0.95;;;25.10;69.90;;;;;;10444803;28;20033;-83
2022/06/11 11:20:32;;;;;;;;;;;25.20;65.60;;;;;;10429126;28;20025;-87
2022/06/11 11:25:53;;;;;;;3.38;1.50;;;25.10;69.70;;;;;;10442315;28;19966;-85
2022/06/11 11:31:02;;;;;;;3.85;1.13;;;25.30;68.70;;;;;;10444746;28;20043;-85
2022/06/11 11:36:24;;;;;;;1.70;1.10;;;25.20;68.00;;;;;;10440182;28;20590;-84
2022/06/11 11:41:33;;;;;;;2.97;1.40;;;25.30;69.10;;;;;;10440497;28;20067;-83
2022/06/11 11:46:35;;;;;;;2.95;1.45;;;25.20;68.00;;;;;;10444330;28;20044;-86
2022/06/11 11:51:40;;;;;;;2.25;1.27;;;25.30;67.70;;;;;;10449606;28;20033;-87
2022/06/11 11:56:42;;;;;;;4.28;1.45;;;25.30;70.20;;;;;;10427615;28;20649;-85
2022/06/11 12:01:44;;;;;;;2.03;1.58;;;25.50;70.00;;;;;;10442500;28;20507;-87
2022/06/11 12:07:05;;;;;;;4.15;1.67;;;25.20;64.90;;;;;;10438184;28;20044;-86
2022/06/11 12:12:21;;;;;;;6.15;1.83;;;25.10;67.60;;;;;;10441934;28;20028;-84
2022/06/11 12:17:32;;;;;;;3.20;1.98;;;25.30;72.50;;;;;;10443920;28;20468;-86
2022/06/11 12:22:43;;;;;;;4.85;2.17;;;25.60;68.30;;;;;;10431646;28;20033;-88
2022/06/11 12:27:44;;;;;;;3.83;2.08;;;25.80;68.60;;;;;;10443882;28;20189;-85
2022/06/11 12:32:45;;;;;;;4.78;1.88;;;25.80;70.50;;;;;;10432604;28;20028;-89
2022/06/11 12:38:11;;;;;;;3.22;1.63;;;26.00;66.40;;;;;;10434181;28;20017;-86
2022/06/11 12:43:20;;;;;;;3.70;1.60;;;25.50;66.40;;;;;;10454580;28;20644;-84
2022/06/11 12:48:41;;;;;;;2.65;1.58;;;25.30;69.70;;;;;;10418491;28;20401;-86
2022/06/11 12:53:52;;;;;;;3.42;1.30;;;25.60;69.10;;;;;;10447170;28;20033;-84
2022/06/11 12:59:27;;;;;;;2.63;1.30;;;26.00;64.70;;;;;;10444800;28;20131;-87
2022/06/11 13:04:47;;;;;;;6.55;2.03;;;25.20;64.60;;;;;;10454240;28;20546;-84
2022/06/11 13:10:25;;;;;;;3.50;2.00;;;24.90;66.90;;;;;;10440799;28;20052;-86
2022/06/11 13:16:04;;;;;;;4.43;1.83;;;25.10;70.50;;;;;;10433766;28;20539;-90
2022/06/11 13:21:25;;;;;;;3.60;2.03;;;25.60;71.30;;;;;;10380457;28;20066;-85
2022/06/11 13:26:55;;;;;;;4.28;1.48;;;25.50;68.50;;;;;;10443761;28;20078;-87
2022/06/11 13:32:24;;;;;;;3.03;1.60;;;25.00;66.20;;;;;;10447486;28;20033;-88
2022/06/11 13:37:56;;;;;;;5.50;1.73;;;24.50;68.20;;;;;;10425591;28;20021;-86
2022/06/11 13:43:03;;;;;;;5.68;2.10;;;24.20;69.70;;;;;;10405199;28;20504;-84
2022/06/11 13:48:36;;;;;;;2.22;1.67;;;23.80;69.90;;;;;;10432442;28;20040;-87
2022/06/11 13:59:11;;;;;;;5.82;1.80;;;24.30;73.40;;;;;;10435690;28;20057;-85
2022/06/11 14:04:33;;;;;;;3.83;1.92;;;24.70;72.60;;;;;;10427058;28;20032;-84
2022/06/11 14:15:37;;;;;;;3.80;2.00;;;24.10;73.40;;;;;;10414805;28;20029;-84
2022/06/11 14:20:38;;;;;;;4.28;1.95;;;24.40;72.80;;;;;;10398056;28;20045;-85
2022/06/11 14:25:45;;;;;;;2.80;1.77;;;24.40;71.20;;;;;;10423980;28;20040;-84
2022/06/11 14:30:45;;;;;;;3.00;1.77;;;24.10;71.50;;;;;;10439687;28;20041;-86
2022/06/11 14:35:49;;;;;;;3.00;1.70;;;24.20;73.50;;;;;;10430750;28;20025;-83
2022/06/11 14:40:53;;;;;;;5.40;1.63;;;24.10;72.00;;;;;;10429491;28;20029;-87
2022/06/11 14:46:00;;;;;;;6.57;1.73;;;24.00;71.50;;;;;;10422937;28;20551;-86
2022/06/11 14:51:00;;;;;;;4.78;2.50;;;24.00;73.90;;;;;;10431851;28;20673;-84
2022/06/11 14:56:13;;;;;;;5.72;2.20;;;24.00;73.10;;;;;;10436748;28;20155;-85
2022/06/11 15:01:40;;;;;;;3.63;2.33;;;23.70;73.30;;;;;;10435822;28;20057;-84
2022/06/11 15:06:50;;;;;;;2.75;1.90;;;23.30;74.70;;;;;;10437793;28;20099;-85
2022/06/11 15:12:28;;;;;;;3.90;1.77;;;23.30;75.80;;;;;;10446933;28;20044;-90
2022/06/11 15:17:52;;;;;;;4.82;1.95;;;23.20;72.60;;;;;;10445707;28;20090;-87
2022/06/11 15:22:54;;;;;;;7.28;1.90;;;23.20;75.50;;;;;;10436590;28;20029;-88
2022/06/11 15:27:56;;;;;;;5.93;1.95;;;23.20;74.60;;;;;;10445073;28;20082;-89
2022/06/11 15:33:13;;;;;;;4.32;1.88;;;23.20;74.60;;;;;;10443610;28;20049;-88
2022/06/11 15:38:25;;;;;;;2.75;1.90;;;23.10;74.90;;;;;;10435886;28;20028;-87
2022/06/11 15:43:35;;;;;;;4.43;1.80;;;23.10;75.20;;;;;;10446955;28;20044;-85
2022/06/11 15:48:43;;;;;;;4.30;2.55;;;23.00;75.60;;;;;;10446208;28;20411;-84
2022/06/11 15:59:31;;;;;;;3.03;2.08;;;23.30;76.80;;;;;;10443585;28;20057;-85
2022/06/11 16:04:40;;;;;;;3.28;2.05;;;23.50;74.50;;;;;;10443081;28;20044;-85
2022/06/11 16:09:40;;;;;;;3.15;1.90;;;23.50;74.30;;;;;;10446976;28;20077;-85
2022/06/11 16:14:44;;;;;;;4.50;1.92;;;23.40;73.60;;;;;;10451902;28;20105;-89
2022/06/11 16:19:54;;;;;;;4.93;2.00;;;23.20;76.00;;;;;;10451086;28;20463;-84
2022/06/11 16:25:01;;;;;;;5.45;1.63;;;23.20;75.60;;;;;;10450341;28;20102;-90
2022/06/11 16:30:06;;;;;;;3.58;2.42;;;22.90;76.90;;;;;;10449906;28;20116;-88
2022/06/11 16:35:15;;;;;;;;;;;22.50;77.50;;;;;;10451545;28;20032;-86
2022/06/11 16:40:38;;;;;;;3.13;1.40;;;22.30;78.10;;;;;;10451232;28;19952;-85
2022/06/11 16:45:52;;;;;;;2.65;1.65;;;22.20;77.70;;;;;;10451051;28;20079;-84
2022/06/11 16:56:37;;;;;;;4.47;2.00;;;22.30;78.30;;;;;;10457795;28;20476;-84
2022/06/11 17:01:44;;;;;;;2.97;1.55;;;22.30;77.80;;;;;;10483225;28;20045;-84
2022/06/11 17:07:02;;;;;;;2.45;1.65;;;22.10;77.70;;;;;;10449993;28;20037;-85
2022/06/11 17:12:36;;;;;;;3.67;1.92;;;22.10;77.40;;;;;;10462645;28;20468;-88
2022/06/11 17:17:57;;;;;;;3.50;1.98;;;21.80;77.90;;;;;;10447591;28;20020;-88
2022/06/11 17:23:05;;;;;;;3.78;2.42;;;21.50;79.60;;;;;;10448491;28;20429;-88
2022/06/11 17:28:22;;;;;;;7.35;2.40;;;21.40;79.80;;;;;;10449327;28;20036;-85
2022/06/11 17:33:23;;;;;;;5.00;2.22;;;21.40;80.60;;;;;;10449937;28;20650;-84
2022/06/11 17:38:33;;;;;;;2.92;1.90;;;21.30;81.20;;;;;;10447521;28;20037;-87
2022/06/11 17:43:34;;;;;;;4.18;2.90;;;21.30;81.70;;;;;;10445799;28;20400;-85
2022/06/11 17:48:35;;;;;;;3.03;2.33;;;21.20;83.40;;;;;;10442675;28;20044;-85
2022/06/11 17:53:35;;;;;;;5.75;2.75;;;21.00;86.60;;;;;;10448217;28;20028;-85
2022/06/11 17:58:36;;;;;;;6.15;2.60;;;20.60;88.40;;;;;;10448251;28;20045;-84
2022/06/11 18:03:39;;;;;;;5.97;2.85;;;20.20;90.10;;;;;;10445211;28;20037;-87
2022/06/11 18:08:40;;;;;;;3.25;2.72;;;19.80;91.20;;;;;;10440415;28;20033;-85
2022/06/11 18:13:41;;;;;;;4.15;2.50;;;19.40;91.80;;;;;;10445158;28;20039;-85
2022/06/11 18:18:49;;;;;;;3.75;2.90;;;19.10;92.50;;;;;;10447019;28;20043;-84
2022/06/11 18:29:10;;;;;;;4.78;2.70;;;18.40;94.00;;;;;;10433864;28;20120;-87
2022/06/11 18:34:11;;;;;;;5.60;3.20;;;18.10;95.20;;;;;;10445486;28;20032;-87
2022/06/11 18:39:12;;;;;;;7.03;3.05;;;17.70;96.50;;;;;;10448104;28;20617;-87
2022/06/11 18:44:12;;;;;;;3.35;2.45;;;17.40;97.70;;;;;;10443286;28;20028;-84
2022/06/11 18:49:14;;;;;;;12.13;3.40;;;17.20;98.20;;;;;;10444890;28;20039;-89
2022/06/11 18:54:17;;;;;;;6.00;3.50;;;17.00;99.60;;;;;;10431888;28;20022;-83
2022/06/11 18:59:18;;;;;;;5.75;3.38;;;16.80;99.90;;;;;;10441687;28;20044;-88
2022/06/11 19:04:19;;;;;;;5.82;3.42;;;16.70;99.90;;;;;;10440206;28;20048;-84
2022/06/11 19:09:21;;;;;;;7.30;3.67;;;16.50;99.90;;;;;;10441528;28;20098;-86
2022/06/11 19:14:22;;;;;;;4.22;3.78;;;16.40;99.90;;;;;;10430780;28;20489;-85
2022/06/11 19:19:26;;;;;;;6.53;4.03;;;16.20;99.90;;;;;;10444142;28;20660;-91
2022/06/11 19:24:29;;;;;;;5.65;3.42;;;16.20;99.90;;;;;;10443733;28;20065;-84
2022/06/11 19:29:31;;;;;;;7.93;4.18;;;16.10;99.90;;;;;;10418542;28;20448;-83
2022/06/11 19:34:32;;;;;;;5.13;3.80;;;16.00;99.90;;;;;;10446342;28;20529;-85
2022/06/11 19:39:42;;;;;;;6.25;3.67;;;15.90;99.90;;;;;;10441903;28;20033;-89
2022/06/11 19:44:49;;;;;;;7.95;4.38;;;15.70;99.90;;;;;;10443660;28;20040;-84
2022/06/11 19:49:50;;;;;;;6.70;4.28;;;15.60;99.90;;;;;;10443257;28;20092;-84
2022/06/11 19:54:52;;;;;;;6.65;4.30;;;15.60;99.90;;;;;;10451884;28;20025;-83
2022/06/11 19:59:54;;;;;;;7.47;4.43;;;15.50;99.90;;;;;;10449084;28;20404;-83
2022/06/11 20:04:54;;;;;;;6.38;4.45;;;15.50;99.90;;;;;;10448458;28;20080;-83
2022/06/11 20:09:55;;;;;;;10.50;4.50;;;15.50;99.90;;;;;;10451179;28;20127;-83
2022/06/11 20:14:56;;;;;;;8.40;4.90;;;15.50;99.90;;;;;;10451682;28;20100;-82
2022/06/11 20:19:57;;;;;;;12.40;4.88;;;15.50;99.90;;;;;;10488157;28;20483;-84
2022/06/11 20:24:58;;;;;;;9.25;4.55;;;15.40;99.90;;;;;;10441831;28;20036;-90
2022/06/11 20:29:58;;;;;;;5.40;4.15;;;15.40;99.90;;;;;;10457071;28;20048;-84
2022/06/11 20:34:59;;;;;;;6.43;4.00;;;15.40;99.90;;;;;;10453262;28;20107;-84
2022/06/11 20:40:06;;;;;;;6.32;4.45;;;15.40;99.90;;;;;;10450702;28;20387;-89
2022/06/11 20:45:08;;;;;;;6.15;4.18;;;15.40;99.90;;;;;;10440883;28;20473;-84
2022/06/11 20:50:09;;;;;;;6.35;4.10;;;15.30;99.90;;;;;;10434547;28;20029;-86
2022/06/11 20:55:10;;;;;;;5.30;3.88;;;15.30;99.90;;;;;;10450395;28;20028;-85
2022/06/11 21:00:13;;;;;;;5.53;4.18;;;15.30;99.90;;;;;;10452741;28;20033;-87
2022/06/11 21:05:16;;;;;;;9.57;4.82;;;15.30;99.90;;;;;;10444499;28;20049;-87
2022/06/11 21:10:16;;;;;;;8.07;4.30;;;15.30;99.90;;;;;;10445678;28;20017;-86
2022/06/11 21:15:19;;;;;;;5.32;4.82;;;15.20;99.90;;;;;;10440083;28;20416;-85
2022/06/11 21:20:27;;;;;;;12.60;5.03;;;15.10;99.90;;;;;;10432342;28;20044;-85
2022/06/11 21:25:32;;;;;;;9.07;4.32;;;15.00;99.90;;;;;;10441397;28;20033;-86
2022/06/11 21:30:33;;;;;;;10.30;4.88;;;15.00;99.90;;;;;;10439565;28;20396;-84
2022/06/11 21:35:33;;;;;;;11.02;5.30;;;15.00;99.90;;;;;;10440513;28;20032;-84
2022/06/11 21:40:34;;;;;;;8.13;4.90;;;15.00;99.90;;;;;;10444823;28;20106;-84
2022/06/11 21:45:35;;;;;;;7.07;4.53;;;14.90;99.90;;;;;;10450578;28;20510;-84
2022/06/11 21:50:36;;;;;;;12.75;4.78;;;14.90;99.90;;;;;;10449505;28;20040;-88
2022/06/11 21:55:37;;;;;;;6.88;4.32;;;15.00;99.90;;;;;;10449955;28;20040;-84
2022/06/11 22:00:38;;;;;;;9.50;4.85;;;15.00;99.90;;;;;;10451104;28;20047;-85
2022/06/11 22:05:39;;;;;;;5.38;3.92;;;15.00;99.90;;;;;;10434054;28;20440;-85
2022/06/11 22:10:40;;;;;;;6.63;4.78;;;15.00;99.90;;;;;;10444494;28;20037;-89
2022/06/11 22:15:41;;;;;;;9.60;4.68;;;14.90;99.90;;;;;;10445299;28;20044;-85
2022/06/11 22:20:41;;;;;;;6.75;5.47;;;14.90;99.90;;;;;;10452788;28;20040;-85
2022/06/11 22:25:42;;;;;;;5.63;4.60;;;14.80;99.90;;;;;;10444482;28;20656;-85
2022/06/11 22:30:42;;;;;;;6.93;4.88;;;14.80;99.90;;;;;;10446875;28;20033;-85
2022/06/11 22:35:45;;;;;;;10.00;5.25;;;14.80;99.90;;;;;;10438020;28;20029;-86
2022/06/11 22:40:45;;;;;;;7.25;5.00;;;14.70;99.90;;;;;;10441800;28;20025;-89
2022/06/11 22:45:46;;;;;;;6.55;5.40;;;14.70;99.90;;;;;;10444851;28;20413;-85
2022/06/11 22:50:47;;;;;;;7.22;4.78;;;14.60;99.90;;;;;;10436825;28;20032;-85
2022/06/11 22:55:48;;;;;;;6.78;5.28;;;14.60;99.90;;;;;;10436350;28;20482;-85
2022/06/11 23:00:49;;;;;;;10.50;5.30;;;14.50;99.90;;;;;;10445939;28;20526;-86
2022/06/11 23:05:50;;;;;;;6.35;5.10;;;14.40;99.90;;;;;;10442410;28;20055;-88
2022/06/11 23:10:51;;;;;;;7.35;5.60;;;14.30;99.90;;;;;;10447509;28;20164;-87
2022/06/11 23:15:53;;;;;;;7.85;4.90;;;14.20;99.90;;;;;;10444382;28;20085;-86
2022/06/11 23:21:01;;;;;;;7.50;4.55;;;14.20;99.90;;;;;;10441309;28;20036;-87
2022/06/11 23:26:02;;;;;;;9.23;5.00;;;14.20;99.90;;;;;;10438572;28;20037;-86
2022/06/11 23:31:05;;;;;;;5.72;4.78;;;14.20;99.90;;;;;;10441846;28;20033;-88
2022/06/11 23:36:06;;;;;;;6.55;4.70;;;14.10;99.90;;;;;;10443517;28;20028;-86
2022/06/11 23:41:11;;;;;;;6.65;5.00;;;14.10;99.90;;;;;;10434109;28;20108;-88
2022/06/11 23:46:12;;;;;;;7.03;4.90;;;14.10;99.90;;;;;;10442091;28;20047;-88
2022/06/11 23:51:18;;;;;;;8.70;5.70;;;14.00;99.90;;;;;;10443117;28;20039;-85
2022/06/11 23:56:19;;;;;;;7.00;4.63;;;14.00;99.90;;;;;;10443490;28;20071;-85
